Skip Navigation LinksHome page > Weather > Current weather Skip Navigation Links

Current Weather

Honolulu Intl, Honolulu

For information only: do not use for flight planning or navigation.
Latest weather
Observation time Tuesday, February 21, 2017 9:53 PM HST
Local time Tuesday, February 21, 2017 10:22 PM HST
Flight conditions Visual Meteorological Conditions
Winds
Wind direction East-Northeast (60°)
Wind speed 14 mph
Wind gusting to 25 mph
Visibility 10 mi.
Sky condition
Ceiling unlimited
Cloud layer few clouds 2,800 ft.
Cloud layer scattered clouds 4,100 ft.
Cloud layer scattered clouds 6,000 ft.
Temperature 72°F
Dewpoint 57°F
Altimeter 30.26 in.Hg
Derived measurements
Relative humidity 59%
Density altitude 688 ft.
Sea-level pressure 30.26 in.Hg
Remarks
System requires maintenance.
Automated weather observing station with precipitation discriminator.
METAR PHNL 220753Z 06012G22KT 10SM FEW028 SCT041 SCT060 22/14 A3026 RMK AO2 SLP246 T02220139 $

Settings

Location code

InnerDrive.Weather 4.0.6144.1 Release CLR 4.0.30319.34209
Copyright ©2015 Inner Drive Technology. All rights reserved. Portions Copyright ©1986-2015 David Braverman.

Find weather

Site navigation


Skip Navigation Links

Place info

Page info

PayPal - The safer, easier way to pay online!

Return home.

Copyright ©2017 Inner Drive Technology. Purveyors of fine, hand-crafted computer software. Page printed 2017-02-22T08:22:35 UTC.